Time;durP1;ratioP1;P1;durP2;ratioP2;P2;SDS_P1;SDS_P2;PMS_P1;PMS_P2;Temp;Humidity;BMP_temperature;BMP_pressure;BME280_temperature;BME280_humidity;BME280_pressure;Samples;Min_cycle;Max_cycle;Signal;HPM_P1;HPM_P2
2021/03/22 00:01:35;;;;;;;17.67;4.70;;;;;;;-143.23;100.00;60835.56;5058940;28;32536;-71
2021/03/22 00:04:02;;;;;;;21.27;2.92;;;;;;;-143.23;100.00;60835.56;5059916;28;32105;-69
2021/03/22 00:06:28;;;;;;;16.35;2.70;;;;;;;-143.23;100.00;60835.56;5061096;28;32024;-70
2021/03/22 00:08:56;;;;;;;10.73;2.95;;;;;;;-143.23;100.00;60835.56;5059342;28;31877;-70
2021/03/22 00:11:23;;;;;;;15.45;2.70;;;;;;;-143.23;100.00;60835.56;5060453;28;33168;-72
2021/03/22 00:13:49;;;;;;;16.15;3.20;;;;;;;-143.23;100.00;60835.56;5058721;28;31901;-70
2021/03/22 00:16:16;;;;;;;18.45;3.15;;;;;;;-143.23;100.00;60835.56;5065370;28;31777;-69
2021/03/22 00:18:43;;;;;;;20.08;3.28;;;;;;;-143.23;100.00;60835.56;5079071;28;31179;-70
2021/03/22 00:21:12;;;;;;;15.65;2.85;;;;;;;-143.23;100.00;60835.56;5078829;28;32536;-71
2021/03/22 00:23:38;;;;;;;17.85;2.90;;;;;;;-143.23;100.00;60835.56;5079890;28;32090;-75
2021/03/22 00:26:05;;;;;;;16.15;2.67;;;;;;;-143.23;100.00;60835.56;5079811;28;31750;-70
2021/03/22 00:28:38;;;;;;;15.50;4.03;;;;;;;-143.23;100.00;60835.56;5079374;28;32554;-70
2021/03/22 00:31:13;;;;;;;12.48;2.08;;;;;;;-143.23;100.00;60835.56;5079869;28;33157;-69
2021/03/22 00:33:39;;;;;;;19.08;3.50;;;;;;;-143.23;100.00;60835.56;5078544;28;32299;-70
2021/03/22 00:36:07;;;;;;;13.73;2.70;;;;;;;-143.23;100.00;60835.56;5077902;28;32814;-70
2021/03/22 00:38:33;;;;;;;11.48;3.10;;;;;;;-143.23;100.00;60835.56;5079964;28;32477;-70
2021/03/22 00:41:02;;;;;;;14.77;2.55;;;;;;;-143.23;100.00;60835.56;5079932;28;33019;-76
2021/03/22 00:43:28;;;;;;;19.02;2.90;;;;;;;-143.23;100.00;60835.56;5078911;28;32065;-75
2021/03/22 00:45:57;;;;;;;19.00;2.97;;;;;;;-143.23;100.00;60835.56;5078975;28;31967;-76
2021/03/22 00:48:28;;;;;;;11.80;3.17;;;;;;;-143.23;100.00;60835.56;5078369;28;32636;-76
2021/03/22 00:50:55;;;;;;;17.67;3.38;;;;;;;-143.23;100.00;60835.56;5079016;28;32564;-76
2021/03/22 00:53:22;;;;;;;15.20;3.20;;;;;;;-143.23;100.00;60835.56;5078983;28;32382;-75
2021/03/22 00:55:48;;;;;;;15.38;3.55;;;;;;;-143.23;100.00;60835.56;5080428;28;31898;-78
2021/03/22 00:58:14;;;;;;;9.98;3.00;;;;;;;-143.23;100.00;60835.56;5080716;28;32426;-76
2021/03/22 01:00:48;;;;;;;25.40;3.65;;;;;;;-143.23;100.00;60835.56;5090416;28;32838;-78
2021/03/22 01:03:19;;;;;;;16.98;4.32;;;;;;;-143.23;100.00;60835.56;5087698;28;32569;-75
2021/03/22 01:05:45;;;;;;;21.58;4.32;;;;;;;-143.23;100.00;60835.56;5080245;28;32085;-75
2021/03/22 01:08:11;;;;;;;22.17;4.30;;;;;;;-143.23;100.00;60835.56;5078444;28;31307;-77
2021/03/22 01:10:44;;;;;;;20.38;3.55;;;;;;;-143.23;100.00;60835.56;5078604;28;32609;-75
2021/03/22 01:13:20;;;;;;;13.15;4.00;;;;;;;-143.23;100.00;60835.56;5078184;28;32406;-77
2021/03/22 01:15:47;;;;;;;16.73;4.43;;;;;;;-143.23;100.00;60835.56;5079060;28;32460;-75
2021/03/22 01:18:15;;;;;;;17.50;4.90;;;;;;;-143.23;100.00;60835.56;5079279;28;31462;-77
2021/03/22 01:20:48;;;;;;;13.50;3.95;;;;;;;-143.23;100.00;60835.56;5094602;28;31608;-78
2021/03/22 01:23:15;;;;;;;21.35;4.35;;;;;;;-143.23;100.00;60835.56;5079052;28;32447;-76
2021/03/22 01:25:42;;;;;;;17.45;4.05;;;;;;;-143.23;100.00;60835.56;5078319;28;31577;-76
2021/03/22 01:28:14;;;;;;;13.82;3.92;;;;;;;-143.23;100.00;60835.56;5077142;28;31535;-70
2021/03/22 01:30:47;;;;;;;14.93;3.70;;;;;;;-143.23;100.00;60835.56;5078760;28;32445;-71
2021/03/22 01:33:16;;;;;;;16.23;4.00;;;;;;;-143.23;100.00;60835.56;5078156;28;32130;-71
2021/03/22 01:35:43;;;;;;;19.52;4.88;;;;;;;-143.23;100.00;60835.56;5077895;28;31954;-71
2021/03/22 01:38:09;;;;;;;12.02;3.80;;;;;;;-143.23;100.00;60835.56;5078615;28;32395;-73
2021/03/22 01:40:57;;;;;;;15.80;4.25;;;;;;;-143.23;100.00;60835.56;5078958;28;33541;-72
2021/03/22 01:43:35;;;;;;;15.32;4.05;;;;;;;-143.23;100.00;60835.56;5078971;28;32557;-71
2021/03/22 01:46:02;;;;;;;14.70;4.07;;;;;;;-143.23;100.00;60835.56;5078327;28;31756;-74
2021/03/22 01:48:29;;;;;;;20.73;4.65;;;;;;;-143.23;100.00;60835.56;5077296;28;31554;-71
2021/03/22 01:50:55;;;;;;;17.80;4.60;;;;;;;-143.23;100.00;60835.56;5078924;28;33525;-73
2021/03/22 01:53:21;;;;;;;13.48;4.55;;;;;;;-143.23;100.00;60835.56;5078539;28;32485;-73
2021/03/22 01:55:47;;;;;;;16.67;4.63;;;;;;;-143.23;100.00;60835.56;5077894;28;32432;-73
2021/03/22 01:58:13;;;;;;;14.45;4.07;;;;;;;-143.23;100.00;60835.56;5078839;28;31559;-77
2021/03/22 02:00:42;;;;;;;20.67;3.90;;;;;;;-143.23;100.00;60835.56;5076404;28;32866;-72
2021/03/22 02:03:12;;;;;;;15.27;4.15;;;;;;;-143.23;100.00;60835.56;5078074;28;32019;-70
2021/03/22 02:05:46;;;;;;;12.95;3.88;;;;;;;-143.23;100.00;60835.56;5078125;28;32455;-70
2021/03/22 02:08:18;;;;;;;17.63;4.30;;;;;;;-143.23;100.00;60835.56;5077986;28;32569;-70
2021/03/22 02:10:47;;;;;;;13.52;4.80;;;;;;;-143.23;100.00;60835.56;5078659;28;33505;-71
2021/03/22 02:13:16;;;;;;;13.10;3.60;;;;;;;-143.23;100.00;60835.56;5078454;28;33223;-71
2021/03/22 02:15:44;;;;;;;22.17;4.15;;;;;;;-143.23;100.00;60835.56;5075471;28;31662;-73
2021/03/22 02:18:35;;;;;;;14.80;3.90;;;;;;;-143.23;100.00;60835.56;5057491;28;31624;-69
2021/03/22 02:21:27;;;;;;;24.75;4.72;;;;;;;-143.23;100.00;60835.56;5057304;28;32188;-69
2021/03/22 02:23:53;;;;;;;13.20;3.47;;;;;;;-143.23;100.00;60835.56;5057624;28;32288;-70
2021/03/22 02:26:34;;;;;;;16.50;4.13;;;;;;;-143.23;100.00;60835.56;5057570;28;31894;-70
2021/03/22 02:29:28;;;;;;;17.65;5.45;;;;;;;-143.23;100.00;60835.56;5057767;28;31746;-70
2021/03/22 02:32:11;;;;;;;17.85;3.90;;;;;;;-143.23;100.00;60835.56;5057350;28;32901;-70
2021/03/22 02:35:02;;;;;;;21.70;4.38;;;;;;;-143.23;100.00;60835.56;5057895;28;32316;-70
2021/03/22 02:37:37;;;;;;;11.38;3.85;;;;;;;-143.23;100.00;60835.56;5057892;28;32394;-70
2021/03/22 02:40:37;;;;;;;13.20;4.05;;;;;;;-143.23;100.00;60835.56;5057688;28;32647;-70
2021/03/22 02:43:05;;;;;;;16.85;4.03;;;;;;;-143.23;100.00;60835.56;5059281;28;31724;-70
2021/03/22 02:45:42;;;;;;;16.38;4.25;;;;;;;-143.23;100.00;60835.56;5056775;28;32161;-69
2021/03/22 02:48:16;;;;;;;12.63;3.83;;;;;;;-143.23;100.00;60835.56;5057492;28;31888;-70
2021/03/22 02:50:44;;;;;;;14.45;4.30;;;;;;;-143.23;100.00;60835.56;5057611;28;31556;-69
2021/03/22 02:53:32;;;;;;;16.42;4.60;;;;;;;-143.23;100.00;60835.56;5055432;28;32624;-70
2021/03/22 02:56:10;;;;;;;18.70;5.45;;;;;;;-143.23;100.00;60835.56;5057823;28;32893;-70
2021/03/22 02:58:45;;;;;;;14.95;4.20;;;;;;;-143.23;100.00;60835.56;5060560;28;31707;-70
2021/03/22 03:01:17;;;;;;;16.67;4.65;;;;;;;-143.23;100.00;60835.56;5060746;28;31563;-72
2021/03/22 03:03:47;;;;;;;21.27;5.03;;;;;;;-143.23;100.00;60835.56;5061015;28;33525;-72
2021/03/22 03:06:13;;;;;;;18.20;4.60;;;;;;;-143.23;100.00;60835.56;5061320;28;32079;-69
2021/03/22 03:08:41;;;;;;;13.98;4.75;;;;;;;3.07;nan;102670.97;5007218;28;96739;-70
2021/03/22 03:11:09;;;;;;;19.35;5.60;;;;;;;3.20;nan;102668.00;4976141;28;109234;-70
2021/03/22 03:13:36;;;;;;;19.75;5.63;;;;;;;3.23;nan;102667.22;4974526;28;124079;-69
2021/03/22 03:16:03;;;;;;;19.25;5.60;;;;;;;3.27;nan;102673.38;4979250;28;123656;-72
2021/03/22 03:18:30;;;;;;;20.33;5.22;;;;;;;3.28;nan;102668.25;4993366;28;108821;-69
2021/03/22 03:20:59;;;;;;;17.30;6.28;;;;;;;3.38;nan;102677.25;4993565;28;110589;-72
2021/03/22 03:23:28;;;;;;;16.17;5.40;;;;;;;3.38;nan;102670.34;4990885;28;126294;-74
2021/03/22 03:25:55;;;;;;;12.43;4.82;;;;;;;3.53;nan;102676.91;4990620;28;126540;-72
2021/03/22 03:28:30;;;;;;;21.73;5.90;;;;;;;3.56;nan;102670.09;4992210;28;111428;-73
2021/03/22 03:30:59;;;;;;;17.38;5.05;;;;;;;3.59;nan;102679.72;4995783;28;109167;-72
2021/03/22 03:33:25;;;;;;;21.60;5.22;;;;;;;3.63;nan;102674.69;4991635;28;126553;-74
2021/03/22 03:35:51;;;;;;;22.60;5.20;;;;;;;3.65;nan;102662.66;4992548;28;126782;-70
2021/03/22 03:38:17;;;;;;;12.93;4.65;;;;;;;3.83;nan;102695.25;4992738;28;110975;-72
2021/03/22 03:40:45;;;;;;;18.25;4.95;;;;;;;1.61;nan;102269.34;4991387;28;111636;-70
2021/03/22 03:43:13;;;;;;;21.83;4.82;;;;;;;3.85;nan;102736.03;4991474;28;127018;-71
2021/03/22 03:45:42;;;;;;;11.55;4.82;;;;;;;3.91;nan;102665.22;4989674;28;126749;-74
2021/03/22 03:48:11;;;;;;;19.35;4.43;;;;;;;3.94;nan;102665.31;4990212;28;111285;-73
2021/03/22 03:50:37;;;;;;;12.05;4.93;;;;;;;3.98;nan;102664.59;4991205;28;110757;-73
2021/03/22 03:53:04;;;;;;;15.80;4.57;;;;;;;4.02;nan;102669.06;4991135;28;123993;-75
2021/03/22 03:55:31;;;;;;;15.02;4.45;;;;;;;4.07;nan;102660.56;4993834;28;122918;-70
2021/03/22 03:57:57;;;;;;;19.27;5.95;;;;;;;4.07;nan;102664.88;4990277;28;111098;-76
2021/03/22 04:00:26;;;;;;;14.82;4.65;;;;;;;4.10;nan;102680.59;4990559;28;111220;-72
2021/03/22 04:02:54;;;;;;;18.50;4.63;;;;;;;4.17;nan;102676.44;4990539;28;126457;-71
2021/03/22 04:05:23;;;;;;;20.52;4.88;;;;;;;4.14;nan;102673.75;4991182;28;126174;-71
2021/03/22 04:07:49;;;;;;;10.95;4.03;;;;;;;4.12;nan;102689.31;4992104;28;110408;-70
2021/03/22 04:10:15;;;;;;;12.10;4.60;;;;;;;;;;4992738;28;110621;-70
2021/03/22 04:12:41;;;;;;;18.17;4.70;;;;;;;4.23;nan;102672.34;4993858;28;126479;-70
2021/03/22 04:15:10;;;;;;;20.13;4.30;;;;;;;4.30;nan;102679.53;4992595;28;124286;-70
2021/03/22 04:17:36;;;;;;;12.88;3.78;;;;;;;4.33;nan;102684.81;4992411;28;110233;-70
2021/03/22 04:20:04;;;;;;;13.35;4.90;;;;;;;4.39;nan;102677.19;4992649;28;110640;-69
2021/03/22 04:22:30;;;;;;;16.08;4.60;;;;;;;4.39;nan;102684.09;4991678;28;125931;-71
2021/03/22 04:24:56;;;;;;;12.48;4.82;;;;;;;4.44;nan;102681.66;4989997;28;125293;-71
2021/03/22 04:27:22;;;;;;;15.52;4.40;;;;;;;4.44;nan;102685.13;4991769;28;110277;-71
2021/03/22 04:29:48;;;;;;;19.63;4.70;;;;;;;4.46;nan;102687.78;4988928;28;110447;-71
2021/03/22 04:32:17;;;;;;;18.83;5.50;;;;;;;4.47;nan;102679.16;4990998;28;124936;-70
2021/03/22 04:34:43;;;;;;;11.65;3.85;;;;;;;4.47;nan;102674.81;4991485;28;123991;-71
2021/03/22 04:37:09;;;;;;;15.27;5.38;;;;;;;4.51;nan;102678.41;4992953;28;109196;-71
2021/03/22 04:39:36;;;;;;;15.82;5.07;;;;;;;4.51;nan;102668.88;4992601;28;108925;-71
2021/03/22 04:42:04;;;;;;;16.48;4.78;;;;;;;4.54;nan;102678.50;4992041;28;124259;-70
2021/03/22 04:44:30;;;;;;;14.90;4.70;;;;;;;4.54;nan;102673.31;4993236;28;123776;-69
2021/03/22 04:46:56;;;;;;;17.90;4.18;;;;;;;4.57;nan;102676.00;4994051;28;109196;-70
2021/03/22 04:49:22;;;;;;;17.15;4.32;;;;;;;4.55;nan;102675.06;4994906;28;108919;-70
2021/03/22 04:51:50;;;;;;;14.23;4.38;;;;;;;4.58;nan;102680.34;4993477;28;124762;-75
2021/03/22 04:54:16;;;;;;;14.50;4.60;;;;;;;4.60;nan;102673.47;4993246;28;124541;-76
2021/03/22 04:56:42;;;;;;;12.63;3.97;;;;;;;4.60;nan;102683.88;4994553;28;108402;-78
2021/03/22 04:59:08;;;;;;;14.05;4.10;;;;;;;4.57;nan;102673.41;4991869;28;107728;-76
2021/03/22 05:01:34;;;;;;;13.07;3.85;;;;;;;4.58;nan;102673.44;4992857;28;123755;-72
2021/03/22 05:04:00;;;;;;;11.07;3.72;;;;;;;4.59;nan;102666.53;4992008;28;123926;-74
2021/03/22 05:06:27;;;;;;;16.40;4.78;;;;;;;4.62;nan;102669.22;4993848;28;109797;-76
2021/03/22 05:08:56;;;;;;;17.98;4.07;;;;;;;4.61;nan;102670.03;4993507;28;108141;-76
2021/03/22 05:11:28;;;;;;;11.70;3.60;;;;;;;4.67;nan;102667.66;4991874;28;124354;-76
2021/03/22 05:13:54;;;;;;;18.55;3.72;;;;;;;4.69;nan;102663.38;4990178;28;126805;-77
2021/03/22 05:16:20;;;;;;;14.85;3.90;;;;;;;4.66;nan;102668.47;5005983;28;111569;-72
2021/03/22 05:18:47;;;;;;;9.43;3.40;;;;;;;4.67;nan;102667.66;5012488;28;112059;-74
2021/03/22 05:21:14;;;;;;;13.88;3.90;;;;;;;4.75;nan;102667.84;5002389;28;126136;-78
2021/03/22 05:23:40;;;;;;;14.85;4.25;;;;;;;4.70;nan;102664.25;4992365;28;124640;-75
2021/03/22 05:26:08;;;;;;;10.05;4.18;;;;;;;4.68;nan;102669.41;4992656;28;109208;-75
2021/03/22 05:28:35;;;;;;;18.98;3.65;;;;;;;4.70;nan;102675.53;4991997;28;109159;-74
2021/03/22 05:31:03;;;;;;;13.50;3.00;;;;;;;4.75;nan;102673.06;4992746;28;123942;-75
2021/03/22 05:33:29;;;;;;;10.30;2.65;;;;;;;4.73;nan;102669.53;4991821;28;124548;-74
2021/03/22 05:35:59;;;;;;;13.60;3.35;;;;;;;4.81;nan;102679.34;4992441;28;107910;-73
2021/03/22 05:38:26;;;;;;;15.63;3.60;;;;;;;4.82;nan;102672.41;4992655;28;110817;-73
2021/03/22 05:40:59;;;;;;;8.25;2.88;;;;;;;4.81;nan;102674.13;4992264;28;123951;-74
2021/03/22 05:43:40;;;;;;;12.60;2.63;;;;;;;4.79;nan;102683.63;4991354;28;123172;-74
2021/03/22 05:46:16;;;;;;;11.23;3.20;;;;;;;4.81;nan;102687.13;4992625;28;109050;-72
2021/03/22 05:48:51;;;;;;;12.35;3.47;;;;;;;4.83;nan;102682.84;4992507;28;108218;-74
2021/03/22 05:51:29;;;;;;;10.15;3.45;;;;;;;4.84;nan;102688.94;4989541;28;126362;-74
2021/03/22 05:54:23;;;;;;;7.45;3.30;;;;;;;4.85;nan;102696.78;4989739;28;126085;-74
2021/03/22 05:57:14;;;;;;;14.48;3.85;;;;;;;4.85;nan;102696.78;4990577;28;111623;-75
2021/03/22 05:59:54;;;;;;;11.77;3.67;;;;;;;4.85;nan;102701.97;4992812;28;109021;-75
2021/03/22 06:02:40;;;;;;;12.05;3.95;;;;;;;4.88;nan;102707.31;4992128;28;124170;-75
2021/03/22 06:05:11;;;;;;;12.20;4.30;;;;;;;4.87;nan;102700.34;4992185;28;123570;-74
2021/03/22 06:07:45;;;;;;;15.13;3.78;;;;;;;4.82;nan;102708.81;4992384;28;109016;-75
2021/03/22 06:10:19;;;;;;;;;;;;;;;4.79;nan;102711.34;4993477;28;108921;-74
2021/03/22 06:13:01;;;;;;;16.67;4.07;;;;;;;4.81;nan;102720.06;4991426;28;123486;-72
2021/03/22 06:15:35;;;;;;;17.38;3.75;;;;;;;4.82;nan;102719.22;4992001;28;124591;-72
2021/03/22 06:18:19;;;;;;;16.77;5.25;;;;;;;4.88;nan;102720.31;4972536;28;109350;-72
2021/03/22 06:20:45;;;;;;;14.13;3.67;;;;;;;4.87;nan;102713.34;4972221;28;111712;-73
2021/03/22 06:23:22;;;;;;;12.88;4.00;;;;;;;4.92;nan;102716.06;4970279;28;123876;-74
2021/03/22 06:25:48;;;;;;;16.73;3.92;;;;;;;4.89;nan;102711.66;4971458;28;126455;-71
2021/03/22 06:28:14;;;;;;;14.15;4.28;;;;;;;-143.23;100.00;60835.56;5033899;28;109473;-72
2021/03/22 06:30:53;;;;;;;13.50;4.28;;;;;;;-143.23;100.00;60835.56;5056890;28;30616;-71
2021/03/22 06:33:34;;;;;;;13.07;3.55;;;;;;;-143.23;100.00;60835.56;5061296;28;32479;-77
2021/03/22 06:36:00;;;;;;;8.95;3.97;;;;;;;-143.23;100.00;60835.56;5059431;28;32216;-75
2021/03/22 06:38:26;;;;;;;20.20;4.18;;;;;;;-143.23;100.00;60835.56;5059803;28;31903;-76
2021/03/22 06:40:53;;;;;;;13.63;3.88;;;;;;;-143.23;100.00;60835.56;5060797;28;31694;-72
2021/03/22 06:43:23;;;;;;;9.75;3.92;;;;;;;-143.23;100.00;60835.56;5060275;28;32517;-75
2021/03/22 06:45:53;;;;;;;21.13;5.15;;;;;;;-143.23;100.00;60835.56;5061243;28;33181;-76
2021/03/22 06:48:29;;;;;;;14.77;4.20;;;;;;;-143.23;100.00;60835.56;5060725;28;31744;-75
2021/03/22 06:51:04;;;;;;;14.13;4.50;;;;;;;-143.23;100.00;60835.56;5059860;28;31635;-76
2021/03/22 06:53:33;;;;;;;13.82;5.03;;;;;;;-143.23;100.00;60835.56;5077151;28;32948;-76
2021/03/22 06:56:23;;;;;;;14.65;4.15;;;;;;;-143.23;100.00;60835.56;5080119;28;32015;-76
2021/03/22 06:59:06;;;;;;;12.98;4.85;;;;;;;-143.23;100.00;60835.56;5078713;28;32728;-76
2021/03/22 07:01:32;;;;;;;25.00;4.90;;;;;;;-143.23;100.00;60835.56;5080175;28;31571;-75
2021/03/22 07:04:30;;;;;;;18.58;4.65;;;;;;;-143.23;100.00;60835.56;5080401;28;32954;-76
2021/03/22 07:07:23;;;;;;;16.98;5.35;;;;;;;-143.23;100.00;60835.56;5079821;28;32162;-75
2021/03/22 07:10:01;;;;;;;10.43;3.70;;;;;;;-143.23;100.00;60835.56;5075079;28;31879;-71
2021/03/22 07:12:34;;;;;;;20.92;4.80;;;;;;;-143.23;100.00;60835.56;5079822;28;31550;-70
2021/03/22 07:15:28;;;;;;;14.05;4.07;;;;;;;-143.23;100.00;60835.56;5080393;28;34046;-71
2021/03/22 07:18:13;;;;;;;18.00;5.07;;;;;;;-143.23;100.00;60835.56;5081242;28;32423;-72
2021/03/22 07:20:42;;;;;;;12.88;4.63;;;;;;;-143.23;100.00;60835.56;5080091;28;32733;-70
2021/03/22 07:23:11;;;;;;;21.50;5.72;;;;;;;-143.23;100.00;60835.56;5079584;28;32554;-71
2021/03/22 07:25:51;;;;;;;16.75;4.50;;;;;;;-143.23;100.00;60835.56;5079527;28;33049;-70
2021/03/22 07:28:45;;;;;;;22.15;4.60;;;;;;;-143.23;100.00;60835.56;5077585;28;32133;-70
2021/03/22 07:31:17;;;;;;;12.85;4.47;;;;;;;-143.23;100.00;60835.56;5079766;28;31809;-70
2021/03/22 07:34:11;;;;;;;13.00;4.70;;;;;;;-143.23;100.00;60835.56;5078397;28;31681;-71
2021/03/22 07:36:47;;;;;;;17.52;5.60;;;;;;;-143.23;100.00;60835.56;5057392;28;33340;-71
2021/03/22 07:39:27;;;;;;;15.90;4.60;;;;;;;-143.23;100.00;60835.56;5075046;28;33225;-70
2021/03/22 07:42:14;;;;;;;14.95;4.50;;;;;;;-143.23;100.00;60835.56;5075903;28;31752;-73
2021/03/22 07:45:15;;;;;;;13.18;4.65;;;;;;;-143.23;100.00;60835.56;5093009;28;31374;-72
2021/03/22 07:48:02;;;;;;;20.25;4.78;;;;;;;-143.23;100.00;60835.56;5055208;28;32594;-73
2021/03/22 07:50:28;;;;;;;22.05;4.85;;;;;;;-143.23;100.00;60835.56;5079405;28;32062;-74
2021/03/22 07:52:59;;;;;;;22.70;4.88;;;;;;;-143.23;100.00;60835.56;5079759;28;32471;-78
2021/03/22 07:55:50;;;;;;;17.98;5.25;;;;;;;-143.23;100.00;60835.56;5080165;28;31608;-74
2021/03/22 07:58:35;;;;;;;22.45;5.40;;;;;;;-143.23;100.00;60835.56;5070960;28;32457;-79
2021/03/22 08:01:21;;;;;;;12.23;3.58;;;;;;;-143.23;100.00;60835.56;5079480;28;33131;-73
2021/03/22 08:04:16;;;;;;;8.20;3.53;;;;;;;-143.23;100.00;60835.56;5078731;28;31684;-73
2021/03/22 08:06:44;;;;;;;15.65;4.47;;;;;;;-143.23;100.00;60835.56;5077431;28;31649;-74
2021/03/22 08:09:44;;;;;;;18.13;5.28;;;;;;;-143.23;100.00;60835.56;5076901;28;32287;-70
2021/03/22 08:12:21;;;;;;;23.02;5.60;;;;;;;-143.23;100.00;60835.56;5070381;28;32004;-71
2021/03/22 08:14:49;;;;;;;23.15;6.28;;;;;;;-143.23;100.00;60835.56;5071774;28;31756;-74
2021/03/22 08:17:43;;;;;;;19.23;4.43;;;;;;;-143.23;100.00;60835.56;5072739;28;32156;-75
2021/03/22 08:20:13;;;;;;;20.10;4.97;;;;;;;-143.23;100.00;60835.56;5072639;28;32397;-72
2021/03/22 08:23:16;;;;;;;22.38;5.55;;;;;;;-143.23;100.00;60835.56;5070884;28;32247;-73
2021/03/22 08:25:51;;;;;;;18.73;4.85;;;;;;;-143.23;100.00;60835.56;5070969;28;31178;-71
2021/03/22 08:28:38;;;;;;;19.40;5.05;;;;;;;-143.23;100.00;60835.56;5074337;28;32348;-71
2021/03/22 08:31:22;;;;;;;20.10;5.72;;;;;;;-143.23;100.00;60835.56;5077987;28;32424;-77
2021/03/22 08:34:02;;;;;;;25.92;5.10;;;;;;;-143.23;100.00;60835.56;5078362;28;31890;-72
2021/03/22 08:36:33;;;;;;;10.18;3.78;;;;;;;-143.23;100.00;60835.56;5072074;28;32455;-71
2021/03/22 08:39:24;;;;;;;16.30;3.92;;;;;;;-143.23;100.00;60835.56;5077249;28;31589;-72
2021/03/22 08:42:10;;;;;;;14.70;3.90;;;;;;;-143.23;100.00;60835.56;5069409;28;32408;-71
2021/03/22 08:44:58;;;;;;;14.45;3.40;;;;;;;-143.23;100.00;60835.56;5076813;28;32338;-73
2021/03/22 08:47:36;;;;;;;13.45;4.13;;;;;;;-143.23;100.00;60835.56;5074138;28;31870;-70
2021/03/22 08:50:32;;;;;;;13.48;4.30;;;;;;;-143.23;100.00;60835.56;5075584;28;32530;-67
2021/03/22 08:53:11;;;;;;;8.77;3.47;;;;;;;-143.23;100.00;60835.56;5074816;28;32456;-69
2021/03/22 08:55:40;;;;;;;10.80;3.15;;;;;;;-143.23;100.00;60835.56;5071005;28;32409;-71
2021/03/22 08:58:17;;;;;;;6.05;2.78;;;;;;;-143.23;100.00;60835.56;5076472;28;31719;-71
2021/03/22 09:00:45;;;;;;;10.38;4.00;;;;;;;-143.23;100.00;60835.56;5074570;28;30165;-74
2021/03/22 09:03:18;;;;;;;16.88;3.92;;;;;;;-143.23;100.00;60835.56;5076713;28;32621;-70
2021/03/22 09:06:25;;;;;;;9.88;4.07;;;;;;;-143.23;100.00;60835.56;5076635;28;33158;-69
2021/03/22 09:08:53;;;;;;;12.75;4.30;;;;;;;-143.23;100.00;60835.56;5074027;28;31172;-69
2021/03/22 09:11:28;;;;;;;15.48;4.35;;;;;;;-143.23;100.00;60835.56;5077398;28;31616;-70
2021/03/22 09:13:59;;;;;;;10.55;4.18;;;;;;;-143.23;100.00;60835.56;5077101;28;32672;-71
2021/03/22 09:16:25;;;;;;;13.73;4.40;;;;;;;-143.23;100.00;60835.56;5077228;28;32164;-72
2021/03/22 09:19:12;;;;;;;9.57;2.75;;;;;;;-143.23;100.00;60835.56;5076214;28;32598;-72
2021/03/22 09:22:10;;;;;;;14.13;3.13;;;;;;;-143.23;100.00;60835.56;5077071;28;31213;-72
2021/03/22 09:24:43;;;;;;;9.35;3.08;;;;;;;-143.23;100.00;60835.56;5053114;28;32108;-71
2021/03/22 09:27:19;;;;;;;9.73;3.10;;;;;;;-143.23;100.00;60835.56;5076152;28;32914;-71
2021/03/22 09:30:01;;;;;;;9.60;3.17;;;;;;;-143.23;100.00;60835.56;5076847;28;31830;-70
2021/03/22 09:32:32;;;;;;;15.63;3.45;;;;;;;-143.23;100.00;60835.56;5076997;28;31569;-71
2021/03/22 09:35:17;;;;;;;9.68;2.85;;;;;;;-143.23;100.00;60835.56;5076195;28;33640;-71
2021/03/22 09:37:47;;;;;;;12.55;3.72;;;;;;;-143.23;100.00;60835.56;5051385;28;32866;-70
2021/03/22 09:40:19;;;;;;;14.45;3.80;;;;;;;-143.23;100.00;60835.56;5068185;28;31795;-69
2021/03/22 09:43:04;;;;;;;11.57;4.00;;;;;;;-143.23;100.00;60835.56;5074802;28;31609;-70
2021/03/22 09:45:33;;;;;;;11.05;3.95;;;;;;;-143.23;100.00;60835.56;5071266;28;31377;-71
2021/03/22 09:48:05;;;;;;;13.85;5.03;;;;;;;-143.23;100.00;60835.56;5073886;28;31887;-70
2021/03/22 09:50:34;;;;;;;14.05;4.10;;;;;;;-143.23;100.00;60835.56;5075097;28;31723;-72
2021/03/22 09:53:17;;;;;;;15.77;4.75;;;;;;;-143.23;100.00;60835.56;5053601;28;30933;-70
2021/03/22 09:55:48;;;;;;;14.85;5.57;;;;;;;-143.23;100.00;60835.56;5056250;28;32124;-72
2021/03/22 09:58:30;;;;;;;13.90;4.57;;;;;;;-143.23;100.00;60835.56;5074687;28;33011;-68
2021/03/22 10:01:06;;;;;;;11.35;4.22;;;;;;;-143.23;100.00;60835.56;5075400;28;31744;-69
2021/03/22 10:03:39;;;;;;;25.20;5.07;;;;;;;-143.23;100.00;60835.56;5075837;28;32327;-70
2021/03/22 10:06:38;;;;;;;10.60;2.80;;;;;;;-143.23;100.00;60835.56;5076105;28;32720;-70
2021/03/22 10:09:10;;;;;;;11.70;2.80;;;;;;;-143.23;100.00;60835.56;5079895;28;32515;-73
2021/03/22 10:11:41;;;;;;;11.15;3.70;;;;;;;-143.23;100.00;60835.56;5062367;28;30463;-69
2021/03/22 10:14:17;;;;;;;8.20;3.30;;;;;;;-143.23;100.00;60835.56;5079837;28;31654;-70
2021/03/22 10:16:47;;;;;;;8.10;2.50;;;;;;;-143.23;100.00;60835.56;5078233;28;32396;-70
2021/03/22 10:19:20;;;;;;;10.68;2.42;;;;;;;-143.23;100.00;60835.56;5079698;28;32123;-70
2021/03/22 10:21:57;;;;;;;11.25;3.05;;;;;;;-143.23;100.00;60835.56;5076222;28;31810;-71
2021/03/22 10:24:53;;;;;;;9.45;3.28;;;;;;;-143.23;100.00;60835.56;5094104;28;31386;-70
2021/03/22 10:27:27;;;;;;;14.40;3.78;;;;;;;-143.23;100.00;60835.56;5072200;28;33149;-69
2021/03/22 10:30:11;;;;;;;13.80;3.65;;;;;;;-143.23;100.00;60835.56;5071532;28;33385;-68
2021/03/22 10:33:00;;;;;;;17.67;4.75;;;;;;;7.00;65.34;102805.81;5040995;27;98350;-69
2021/03/22 10:35:48;;;;;;;14.25;4.18;;;;;;;6.98;66.38;102805.78;5043125;27;107817;-68
2021/03/22 10:38:22;;;;;;;15.40;3.85;;;;;;;6.97;66.42;102811.84;5029060;27;124145;-68
2021/03/22 10:40:48;;;;;;;15.65;3.58;;;;;;;6.94;65.56;102818.75;5029009;27;123828;-68
2021/03/22 10:43:29;;;;;;;23.55;5.45;;;;;;;6.93;65.54;102817.88;5028018;27;107457;-69
2021/03/22 10:46:19;;;;;;;15.27;3.90;;;;;;;7.02;65.07;102809.34;5035620;27;107270;-69
2021/03/22 10:48:57;;;;;;;11.73;3.13;;;;;;;6.98;64.55;102815.34;5035250;27;124259;-70
2021/03/22 10:51:35;;;;;;;14.45;4.03;;;;;;;6.99;64.60;102819.72;5049376;27;124196;-69
2021/03/22 10:54:05;;;;;;;12.10;3.40;;;;;;;7.01;63.93;102820.63;5047342;27;109031;-70
2021/03/22 10:56:39;;;;;;;15.02;3.97;;;;;;;7.02;63.51;102806.72;5044812;27;108100;-69
2021/03/22 10:59:29;;;;;;;14.18;3.78;;;;;;;7.01;63.63;102820.63;5032409;27;123891;-69
2021/03/22 11:01:57;;;;;;;13.50;3.80;;;;;;;7.12;63.42;102810.44;5048653;27;123621;-69
2021/03/22 11:04:28;;;;;;;11.75;3.42;;;;;;;7.30;63.14;102809.13;5048309;27;107374;-69
2021/03/22 11:06:56;;;;;;;10.32;3.20;;;;;;;7.34;63.21;102804.84;5046229;27;107473;-69
2021/03/22 11:09:29;;;;;;;16.42;3.50;;;;;;;7.52;62.54;102814.81;5031501;27;124949;-69
2021/03/22 11:11:59;;;;;;;7.82;2.90;;;;;;;7.81;66.18;102816.28;5027505;27;124544;-69
2021/03/22 11:14:29;;;;;;;6.70;3.35;;;;;;;7.76;59.82;102812.69;5028022;27;107283;-71
2021/03/22 11:17:00;;;;;;;5.80;2.67;;;;;;;7.77;60.47;102810.94;5039946;27;107712;-70
2021/03/22 11:19:36;;;;;;;11.45;3.08;;;;;;;7.86;60.04;102811.13;5030008;27;124175;-70
2021/03/22 11:22:34;;;;;;;9.82;2.83;;;;;;;7.99;59.17;102813.13;5026742;28;124339;-70
2021/03/22 11:25:07;;;;;;;7.00;2.50;;;;;;;8.08;59.30;102818.53;5025867;28;109557;-70
2021/03/22 11:27:55;;;;;;;13.45;2.60;;;;;;;8.18;58.19;102815.22;5026837;27;107310;-70
2021/03/22 11:30:34;;;;;;;9.52;2.50;;;;;;;8.05;58.41;102810.63;5027103;28;123976;-71
2021/03/22 11:33:08;;;;;;;8.43;2.40;;;;;;;7.95;58.40;102823.50;5027130;27;125129;-71
2021/03/22 11:35:34;;;;;;;;;;;;;;;7.84;58.25;102813.72;5029348;27;107612;-70
2021/03/22 11:38:02;;;;;;;8.65;2.67;;;;;;;7.77;58.00;102811.81;5028978;28;107328;-71
2021/03/22 11:40:32;;;;;;;10.00;3.00;;;;;;;7.70;58.48;102811.66;5028665;28;123661;-71
2021/03/22 11:43:23;;;;;;;13.90;2.85;;;;;;;7.65;58.35;102814.19;5022134;28;123698;-71
2021/03/22 11:45:49;;;;;;;11.68;2.13;;;;;;;7.66;58.65;102823.78;5011901;28;107600;-71